EUFO2: Eufaula Lake

Data processed at Wed Jan 17 2018 23:10


All information presented herein is the property of the government of the United States of America and may be revised or deleted at any time without prior notice.
Dissemination of this information without the expressed written consent of the Public Affairs Office, Tulsa District U.S. Army Corps of Engineers is strictly prohibited.
These data are gathered electronically and, as presented, have not undergone any form of quality control. These data are not guaranteed to be valid or correct.
Go to home page.
Go to station list.

Upstream stations:

Downstream station:
Previous Day
Next Day
Current Day
    
SHEF ID:       EUFO2     Eufaula Lake
STATION TYPE:  RESERVOIR
Normal Pool:  Bottom =   565.00, Top =   585.00

               PRECIP ELEVATION   STORAGE   TW-ELEV    INFLOW   RELEASE  AIR-TEMP  WIND-DIRWIND-SPEED REL-HUMID SOLAR-RAD   VOLTAGE  BAT-LOAD
                   in        ft     ac-ft        ft       cfs       cfs         F       deg       mph         %      W/m2      volt      volt
              Ccp-Rev   Ccp-Rev   Ccp-Rev   Ccp-Rev  Regi-Rev  Regi-Rev   Ccp-Rev   Ccp-Rev   Ccp-Rev   Ccp-Rev   Ccp-Rev   Ccp-Rev   Ccp-Rev
(US/Central)
01/15 00:00      0.00    581.36   1872114    484.22        90         0     37.49    101.80      2.69     48.72      0.00     13.72     13.53
01/15 01:00      0.00    581.32   1868751    483.83         0         0     36.70    140.20      3.23     48.53      0.00     13.72     13.53
01/15 02:00      0.00    581.29   1866229    483.52        60         0     36.61    144.90      2.88     48.17      0.00     13.72     13.53
01/15 03:00      0.00    581.32   1868751    483.29        30         0     35.94    113.10      3.55     51.59      0.00     13.72     13.53
01/15 04:00      0.00    581.32   1868751    483.08         0         0     37.58    120.50      3.31     49.82      0.00     13.72     13.53
01/15 05:00      0.00    581.31   1867910    483.34         0         0     38.35    130.80      4.24     50.74      0.00     13.72     13.36
01/15 06:00      0.00    581.34   1870432    485.17         0      4075     38.46    138.80      3.66     52.08      0.00     13.72     13.53
01/15 07:00      0.00    581.38   1873795    485.76         0      4075     34.29    349.10      2.02     60.26      0.00     13.71     13.53
01/15 08:00      0.00    581.28   1865389    486.29         1      4090     32.54     56.80      1.43     63.81      7.00     13.72     13.53
01/15 09:00      0.00    581.31   1867910    486.52         1      4090     37.60    121.40      1.58     57.21    136.00     13.72     13.53
01/15 10:00      0.00    581.28   1865389    486.68         1      4090     40.78    305.80      2.28     49.15    282.00     13.72     13.53
01/15 11:00      0.00    581.28   1865389    486.64         1      4090     39.67    344.00      5.56     57.69    218.00     13.72     13.53
01/15 12:00      0.00    581.29   1866229    485.53         1       232     38.80    349.70      5.48     66.25    235.00     13.73     13.36
01/15 13:00      0.00    581.27   1864548    484.76         1         0     33.30    338.40      5.25     60.74    114.00     13.73     13.53
01/15 14:00      0.00    581.25   1862867    484.25        40         0     30.43    348.50      5.27     61.11    116.00     13.73     13.53
01/15 15:00      0.00    581.25   1862867    483.84        80         0     27.37    345.60      4.35     55.38    116.00     13.72     13.53
01/15 16:00      0.00    581.26   1863707    483.53        80         0     24.51    340.90      4.33     58.18     60.00     13.72     13.53
01/15 17:00      0.00    581.25   1862867    484.18        80       460     23.41    343.00      3.50     49.82     21.00     13.72     13.53
01/15 18:00      0.00    581.26   1863707    486.85        80      7880     20.88    342.00      4.46     48.84      2.00     13.71     13.53
01/15 19:00      0.00    581.27   1864548    488.52       262     12585     19.99    340.90      5.03     51.04      0.00     13.71     13.53
01/15 20:00      0.00    581.28   1865389    486.44       445       472     19.45    345.00      4.28     53.24      0.00     13.71     13.53
01/15 21:00      0.00    581.23   1861185    485.39      1485         0     18.91    347.10      4.27     56.36      0.00     13.71     13.53
01/15 22:00      0.00    581.23   1861185    484.67      2318         0     19.13    345.00      4.26     58.31      0.00     13.70     13.53
01/15 23:00      0.00    581.29   1866229    484.19      2318         0     18.57    341.90      3.52     56.48      0.00     13.70     13.53